OPLA

Allama Iqbal International Airport

Airport
ICAO code
OPLA
IATA Code
LHE
Summary
ICAO Region
APAC
ICAO Territory
Location

Lahore, Punjab

Serving
Lahore
Elevation
698 ft
Coordinates
31° 31' 14" N , 74° 24' 16" E
KCC
Cwa
Airport BS
Bird Strike
Metar
Observation
OPLA 110625Z 10018KT 5000 FU SCT040 BKN100 30/25 Q1002 TEMPO 05020G35KT 2000 TSRA FEW030CB RMK QFE975 A29.60
Station
Lahore Airport
Date/Time
2022-08-11 06:25:00
Wind direction
100°
Wind speed
18 kts
Lowest cloud amount
scattered clouds
Temperature
30°C
Dew point
25°C
Humidity
74%
QNH
1002 hPa
Weather condition
n/a

Allama Iqbal International Airport is the second-largest civil airport in Pakistan, serving Lahore, the capital of the Punjab province. Previously known as the Lahore International Airport until 2003, it was renamed after Allama Sir Muhammad Iqbal.

Climatology

Humid subtropical Climate/Winter-rainfall climate (Köppen climate classification Cwa).

Runways

Designator Length Width Surface Rops
18R/36L 2743 46 ASP Yes/Yes
18L/36R 3360 46 CON Yes/Yes

Airport map

Aerial View

Airport accidents

SKYbrary Partners:

Safety knowledge contributed by: